Time;durP1;ratioP1;P1;durP2;ratioP2;P2;SDS_P1;SDS_P2;PMS_P1;PMS_P2;Temp;Humidity;BMP_temperature;BMP_pressure;BME280_temperature;BME280_humidity;BME280_pressure;Samples;Min_cycle;Max_cycle;Signal;HPM_P1;HPM_P2
2021/06/17 00:01:26;;;;;;;2.80;2.60;;;25.80;76.70;;;;;;4994550;28;20446;-92
2021/06/17 00:03:54;;;;;;;2.73;2.60;;;25.70;75.70;;;;;;4995077;28;20534;-92
2021/06/17 00:06:21;;;;;;;2.60;2.50;;;25.70;75.70;;;;;;4994331;28;20550;-93
2021/06/17 00:08:48;;;;;;;3.10;2.90;;;25.70;75.70;;;;;;4995029;28;20454;-95
2021/06/17 00:11:16;;;;;;;3.23;3.03;;;25.70;75.70;;;;;;4994735;28;20451;-95
2021/06/17 00:13:44;;;;;;;2.90;2.70;;;25.70;75.70;;;;;;4994731;28;20878;-95
2021/06/17 00:16:11;;;;;;;3.20;3.00;;;25.80;75.80;;;;;;4995068;28;20448;-95
2021/06/17 00:18:38;;;;;;;2.90;2.70;;;25.70;75.60;;;;;;4996127;28;20447;-92
2021/06/17 00:21:06;;;;;;;3.10;2.90;;;25.70;75.70;;;;;;4995795;28;20480;-95
2021/06/17 00:23:34;;;;;;;2.77;2.67;;;25.70;75.60;;;;;;4996351;28;20474;-92
2021/06/17 00:26:01;;;;;;;3.27;3.07;;;25.70;75.60;;;;;;5001448;28;20452;-90
2021/06/17 00:28:29;;;;;;;3.40;2.77;;;25.70;75.60;;;;;;5018302;28;20510;-94
2021/06/17 00:30:57;;;;;;;2.33;2.23;;;25.80;75.70;;;;;;5018518;28;20438;-92
2021/06/17 00:33:24;;;;;;;2.90;2.80;;;25.70;75.60;;;;;;5018621;28;20504;-91
2021/06/17 00:35:51;;;;;;;2.57;2.47;;;25.70;75.60;;;;;;4999000;28;20498;-93
2021/06/17 00:38:18;;;;;;;2.97;2.77;;;25.70;75.60;;;;;;4994875;28;21037;-94
2021/06/17 00:40:46;;;;;;;2.30;2.20;;;25.70;75.60;;;;;;4994442;28;20542;-93
2021/06/17 00:43:13;;;;;;;2.80;2.60;;;25.70;75.50;;;;;;4994327;28;20458;-94
2021/06/17 00:45:43;;;;;;;2.90;2.70;;;25.70;75.60;;;;;;4994960;28;20452;-96
2021/06/17 00:48:13;;;;;;;2.47;2.37;;;25.70;75.60;;;;;;4997762;28;20438;-95
2021/06/17 00:50:42;;;;;;;2.50;2.40;;;25.70;75.60;;;;;;4997961;28;20454;-92
2021/06/17 00:53:10;;;;;;;3.00;2.80;;;25.70;75.50;;;;;;4998855;28;20517;-93
2021/06/17 00:55:38;;;;;;;2.90;2.70;;;25.80;75.70;;;;;;4998260;28;20447;-96
2021/06/17 00:58:05;;;;;;;2.73;2.53;;;25.70;75.60;;;;;;4997891;28;20478;-96
2021/06/17 01:00:32;;;;;;;2.40;2.30;;;25.70;75.70;;;;;;4998371;28;20851;-92
2021/06/17 01:02:59;;;;;;;2.80;2.70;;;25.70;75.50;;;;;;4997829;28;20447;-96
2021/06/17 01:05:28;;;;;;;2.97;2.77;;;25.70;75.50;;;;;;4997290;28;20809;-93
2021/06/17 01:08:17;;;;;;;2.80;2.70;;;25.70;75.50;;;;;;4997986;28;20467;-93
2021/06/17 01:10:54;;;;;;;3.00;2.80;;;25.70;75.50;;;;;;4996471;28;20855;-95
2021/06/17 01:13:26;;;;;;;3.30;3.10;;;25.70;75.50;;;;;;4997509;28;20473;-93
2021/06/17 01:16:04;;;;;;;2.57;2.47;;;25.70;75.50;;;;;;4997093;28;20965;-93
2021/06/17 01:18:32;;;;;;;2.67;2.53;;;25.70;75.50;;;;;;4997246;28;20565;-94
2021/06/17 01:21:08;;;;;;;2.93;2.83;;;25.70;75.50;;;;;;4998050;28;20483;-96
2021/06/17 01:23:55;;;;;;;3.10;2.90;;;25.80;75.60;;;;;;4998064;28;20442;-93
2021/06/17 01:26:32;;;;;;;2.93;2.83;;;25.70;75.50;;;;;;4997299;28;20455;-93
2021/06/17 01:29:01;;;;;;;2.50;2.40;;;25.70;75.50;;;;;;4997157;28;20509;-93
2021/06/17 01:31:33;;;;;;;2.73;2.53;;;25.70;75.60;;;;;;4997000;28;20446;-93
2021/06/17 01:34:00;;;;;;;2.30;2.20;;;25.70;75.60;;;;;;4997762;28;20451;-92
2021/06/17 01:36:33;;;;;;;3.17;2.97;;;25.70;75.50;;;;;;4996839;28;20467;-95
2021/06/17 01:39:02;;;;;;;3.00;2.80;;;25.80;75.60;;;;;;4996505;28;20490;-95
2021/06/17 01:41:34;;;;;;;2.67;2.47;;;25.70;75.50;;;;;;4996998;28;20440;-96
2021/06/17 01:44:04;;;;;;;2.90;2.70;;;25.70;75.50;;;;;;4996848;28;20452;-94
2021/06/17 01:46:34;;;;;;;3.30;3.10;;;25.70;75.50;;;;;;4997073;28;20462;-93
2021/06/17 01:49:02;;;;;;;3.00;2.80;;;25.70;76.40;;;;;;4997423;28;20519;-93
2021/06/17 01:51:31;;;;;;;2.43;2.33;;;25.70;75.50;;;;;;4996624;28;20450;-96
2021/06/17 01:53:58;;;;;;;2.90;2.73;;;25.70;75.40;;;;;;4996891;28;20458;-93
2021/06/17 01:56:26;;;;;;;2.80;2.60;;;25.70;75.50;;;;;;4996685;28;20432;-93
2021/06/17 01:58:55;;;;;;;2.80;2.60;;;25.70;75.50;;;;;;4995571;28;20479;-96
2021/06/17 02:01:29;;;;;;;2.57;2.47;;;25.80;75.60;;;;;;4996485;28;20452;-96
2021/06/17 02:03:57;;;;;;;2.50;2.40;;;25.70;75.50;;;;;;4997049;28;20452;-93
2021/06/17 02:06:26;;;;;;;2.83;2.67;;;25.70;75.50;;;;;;4996093;28;20468;-93
2021/06/17 02:08:54;;;;;;;2.90;2.80;;;25.70;75.50;;;;;;4996626;28;20443;-95
2021/06/17 02:11:22;;;;;;;2.70;2.60;;;25.70;75.50;;;;;;4996412;28;20907;-93
2021/06/17 02:13:50;;;;;;;2.90;2.70;;;25.70;75.50;;;;;;4996422;28;20454;-96
2021/06/17 02:16:20;;;;;;;3.10;2.90;;;25.70;75.50;;;;;;4996937;28;20447;-96
2021/06/17 02:18:50;;;;;;;2.87;2.70;;;25.80;75.60;;;;;;4995339;28;20767;-96
2021/06/17 02:21:17;;;;;;;2.67;2.47;;;25.70;75.40;;;;;;4996070;28;20479;-94
2021/06/17 02:23:49;;;;;;;2.90;2.70;;;25.70;75.40;;;;;;4996280;28;20835;-93
2021/06/17 02:26:18;;;;;;;3.07;2.87;;;25.70;75.50;;;;;;4996576;28;20453;-93
2021/06/17 02:28:49;;;;;;;3.10;2.90;;;25.70;75.40;;;;;;4994667;28;20436;-93
2021/06/17 02:31:20;;;;;;;2.87;2.47;;;25.80;75.50;;;;;;4996343;28;20778;-93
2021/06/17 02:33:49;;;;;;;2.83;2.63;;;25.70;75.50;;;;;;4995996;28;20805;-92
2021/06/17 02:36:22;;;;;;;2.97;2.87;;;25.70;75.40;;;;;;4995955;28;20463;-96
2021/06/17 02:38:51;;;;;;;2.57;2.47;;;25.70;75.40;;;;;;4995921;28;20486;-92
2021/06/17 02:41:19;;;;;;;2.70;2.60;;;25.70;75.40;;;;;;4995982;28;20468;-95
2021/06/17 02:43:48;;;;;;;2.77;2.67;;;25.70;75.40;;;;;;4996127;28;20435;-95
2021/06/17 02:46:16;;;;;;;2.97;2.77;;;25.80;75.50;;;;;;4996112;28;20450;-93
2021/06/17 02:48:43;;;;;;;2.63;2.53;;;25.70;75.40;;;;;;4995883;28;20503;-93
2021/06/17 02:51:11;;;;;;;2.83;2.63;;;25.70;75.40;;;;;;4995958;28;20453;-93
2021/06/17 02:53:38;;;;;;;2.17;2.07;;;25.70;75.40;;;;;;4995632;28;20451;-93
2021/06/17 02:56:12;;;;;;;3.37;3.17;;;25.80;75.50;;;;;;4995754;28;20451;-95
2021/06/17 02:58:55;;;;;;;2.57;2.47;;;25.70;75.30;;;;;;4996040;28;20483;-93
2021/06/17 03:01:28;;;;;;;3.23;3.03;;;25.80;75.50;;;;;;4996220;28;20463;-93
2021/06/17 03:03:59;;;;;;;2.40;2.30;;;25.70;75.40;;;;;;4995777;28;20432;-95
2021/06/17 03:06:34;;;;;;;2.90;2.80;;;25.70;75.40;;;;;;4995907;28;20478;-93
2021/06/17 03:09:06;;;;;;;2.63;2.53;;;25.70;75.40;;;;;;4996414;28;20549;-95
2021/06/17 03:11:34;;;;;;;2.97;2.77;;;25.70;75.40;;;;;;4995209;28;20915;-93
2021/06/17 03:14:06;;;;;;;3.20;3.00;;;25.70;75.40;;;;;;4995383;28;20482;-95
2021/06/17 03:16:35;;;;;;;3.43;3.23;;;25.70;75.40;;;;;;4995492;28;20440;-95
2021/06/17 03:19:02;;;;;;;2.50;2.40;;;25.70;75.40;;;;;;4995250;28;20490;-95
2021/06/17 03:21:34;;;;;;;3.33;3.13;;;25.70;75.30;;;;;;4995163;28;20578;-92
2021/06/17 03:24:03;;;;;;;2.80;2.70;;;25.70;75.30;;;;;;4995180;28;20458;-92
2021/06/17 03:26:31;;;;;;;2.37;2.27;;;25.70;75.30;;;;;;4996213;28;20462;-92
2021/06/17 03:28:59;;;;;;;2.90;2.80;;;25.70;75.30;;;;;;4995820;28;20443;-95
2021/06/17 03:31:29;;;;;;;2.63;2.53;;;25.70;75.30;;;;;;4994878;28;20436;-94
2021/06/17 03:33:57;;;;;;;3.13;2.93;;;25.70;75.30;;;;;;4995380;28;20472;-92
2021/06/17 03:36:25;;;;;;;3.10;2.80;;;25.70;75.30;;;;;;4995072;28;20462;-92
2021/06/17 03:38:55;;;;;;;2.60;2.50;;;25.80;75.40;;;;;;4994724;28;20492;-94
2021/06/17 03:41:23;;;;;;;2.67;2.57;;;25.70;75.30;;;;;;4995385;28;20451;-94
2021/06/17 03:43:52;;;;;;;3.03;2.83;;;25.80;75.40;;;;;;4995071;28;20458;-96
2021/06/17 03:46:21;;;;;;;2.70;2.60;;;25.80;75.40;;;;;;4995390;28;20446;-96
2021/06/17 03:48:48;;;;;;;2.60;2.50;;;25.70;75.30;;;;;;4995139;28;20451;-95
2021/06/17 03:51:16;;;;;;;2.50;2.40;;;25.70;75.30;;;;;;4995503;28;20795;-96
2021/06/17 03:53:46;;;;;;;2.50;2.40;;;25.70;75.30;;;;;;4995029;28;20462;-94
2021/06/17 03:56:17;;;;;;;2.77;2.67;;;25.80;75.40;;;;;;4994143;28;20443;-94
2021/06/17 03:58:44;;;;;;;2.57;2.47;;;25.70;75.30;;;;;;4994821;28;20487;-94
2021/06/17 04:01:12;;;;;;;2.50;2.40;;;25.70;75.30;;;;;;4995015;28;20451;-93
2021/06/17 04:03:39;;;;;;;2.80;2.60;;;25.70;75.30;;;;;;4994764;28;20439;-96
2021/06/17 04:06:09;;;;;;;2.70;2.60;;;25.80;75.40;;;;;;4995935;28;20482;-96
2021/06/17 04:08:42;;;;;;;2.40;2.30;;;25.70;76.10;;;;;;4996324;28;20500;-96
2021/06/17 04:11:11;;;;;;;2.90;2.80;;;25.70;75.30;;;;;;4997803;28;20451;-92
2021/06/17 04:13:42;;;;;;;3.90;3.60;;;25.70;75.30;;;;;;4996174;28;20514;-93
2021/06/17 04:16:22;;;;;;;2.90;2.70;;;25.80;75.40;;;;;;4997070;28;20444;-93
2021/06/17 04:18:50;;;;;;;2.23;2.13;;;25.70;75.20;;;;;;4999450;28;20486;-93
2021/06/17 04:21:19;;;;;;;2.70;2.60;;;25.70;75.30;;;;;;5001510;28;20483;-93
2021/06/17 04:23:51;;;;;;;3.03;2.83;;;25.70;75.30;;;;;;5005041;28;20457;-95
2021/06/17 04:26:19;;;;;;;2.57;2.47;;;25.80;75.30;;;;;;5001444;28;20443;-96
2021/06/17 04:28:48;;;;;;;2.80;2.63;;;25.80;75.30;;;;;;4998367;28;20444;-96
2021/06/17 04:31:16;;;;;;;2.20;2.10;;;25.70;75.30;;;;;;4998833;28;20539;-96
2021/06/17 04:33:44;;;;;;;2.40;2.30;;;25.80;75.40;;;;;;4998365;28;20458;-95
2021/06/17 04:36:12;;;;;;;3.40;3.20;;;25.80;75.30;;;;;;5002026;28;20484;-95
2021/06/17 04:38:39;;;;;;;3.00;2.80;;;25.70;75.20;;;;;;4998717;28;20501;-96
2021/06/17 04:41:07;;;;;;;2.53;2.43;;;25.70;75.20;;;;;;4999740;28;20513;-93
2021/06/17 04:43:36;;;;;;;3.00;2.80;;;25.70;75.30;;;;;;4998295;28;20470;-96
2021/06/17 04:46:05;;;;;;;2.53;2.43;;;25.70;75.20;;;;;;5000243;28;20459;-96
2021/06/17 04:48:34;;;;;;;2.90;2.70;;;25.80;75.30;;;;;;4999618;28;20541;-96
2021/06/17 04:51:03;;;;;;;2.60;2.50;;;25.80;75.30;;;;;;4999705;28;20459;-93
2021/06/17 04:53:31;;;;;;;2.40;2.30;;;25.80;75.30;;;;;;5000940;28;20453;-96
2021/06/17 04:55:58;;;;;;;2.53;2.43;;;25.70;75.20;;;;;;4999825;28;20435;-94
2021/06/17 04:58:26;;;;;;;3.20;3.00;;;25.70;75.20;;;;;;4999453;28;20491;-96
2021/06/17 05:00:53;;;;;;;2.53;2.40;;;25.80;75.30;;;;;;4997976;28;20487;-93
2021/06/17 05:03:22;;;;;;;2.50;2.40;;;25.70;75.20;;;;;;4998194;28;20931;-96
2021/06/17 05:05:51;;;;;;;2.53;2.43;;;25.70;75.20;;;;;;4998947;28;20816;-96
2021/06/17 05:11:02;;;;;;;2.73;2.53;;;25.70;75.20;;;;;;4998439;28;20786;-96
2021/06/17 05:13:31;;;;;;;3.00;2.80;;;25.70;75.30;;;;;;4997857;28;20445;-96
2021/06/17 05:15:59;;;;;;;2.37;2.27;;;25.70;75.20;;;;;;4997948;28;20799;-93
2021/06/17 05:18:28;;;;;;;2.40;2.30;;;25.70;75.20;;;;;;4998249;28;21009;-93
2021/06/17 05:20:57;;;;;;;2.70;2.50;;;25.70;75.20;;;;;;4997564;28;20810;-93
2021/06/17 05:23:25;;;;;;;2.53;2.40;;;25.70;75.20;;;;;;4997889;28;20927;-96
2021/06/17 05:25:53;;;;;;;2.47;2.37;;;25.80;75.30;;;;;;4997423;28;20454;-93
2021/06/17 05:28:24;;;;;;;2.90;2.70;;;25.70;75.30;;;;;;5002726;28;20433;-93
2021/06/17 05:30:52;;;;;;;2.73;2.63;;;25.70;75.20;;;;;;5017172;28;20443;-94
2021/06/17 05:33:19;;;;;;;2.80;2.60;;;25.70;75.20;;;;;;5020482;28;20446;-94
2021/06/17 05:35:48;;;;;;;2.67;2.57;;;25.70;76.10;;;;;;5018487;28;20569;-96
2021/06/17 05:38:17;;;;;;;2.50;2.40;;;25.70;75.20;;;;;;5005176;28;20477;-94
2021/06/17 05:40:44;;;;;;;2.83;2.70;;;25.70;75.30;;;;;;5001223;28;20443;-93
2021/06/17 05:43:11;;;;;;;3.07;2.87;;;25.70;75.30;;;;;;5000934;28;20473;-93
2021/06/17 05:45:38;;;;;;;2.53;2.43;;;25.70;75.30;;;;;;4999428;28;20495;-93
2021/06/17 05:48:05;;;;;;;2.70;2.60;;;25.70;75.30;;;;;;4999063;28;20461;-93
2021/06/17 05:50:32;;;;;;;2.23;2.13;;;25.70;75.20;;;;;;4998147;28;20439;-94
2021/06/17 05:53:01;;;;;;;3.00;2.80;;;25.70;75.30;;;;;;4997815;28;20934;-93
2021/06/17 05:55:28;;;;;;;2.37;2.27;;;25.70;75.30;;;;;;4998922;28;20455;-94
2021/06/17 05:57:55;;;;;;;2.60;2.50;;;25.70;75.30;;;;;;4997768;28;20472;-94
2021/06/17 06:00:22;;;;;;;3.10;2.90;;;25.70;75.30;;;;;;4996847;28;20494;-95
2021/06/17 06:02:49;;;;;;;2.90;2.73;;;25.70;75.30;;;;;;4996823;28;20851;-93
2021/06/17 06:05:17;;;;;;;2.20;2.10;;;25.70;75.30;;;;;;4996498;28;20542;-95
2021/06/17 06:07:43;;;;;;;2.30;2.20;;;25.70;75.20;;;;;;4997259;28;20452;-93
2021/06/17 06:10:13;;;;;;;2.40;2.30;;;25.80;75.40;;;;;;4996994;28;20451;-92
2021/06/17 06:12:41;;;;;;;2.40;2.30;;;25.70;75.30;;;;;;4997192;28;20548;-96
2021/06/17 06:15:09;;;;;;;2.53;2.40;;;25.70;75.30;;;;;;4998071;28;20431;-93
2021/06/17 06:17:36;;;;;;;2.40;2.30;;;25.70;76.20;;;;;;4997895;28;20444;-95
2021/06/17 06:20:05;;;;;;;2.93;2.80;;;25.80;75.40;;;;;;4998911;28;20492;-92
2021/06/17 06:22:33;;;;;;;3.27;3.07;;;25.70;75.30;;;;;;4996980;28;21024;-95
2021/06/17 06:25:00;;;;;;;2.50;2.40;;;25.70;75.30;;;;;;4998150;28;20466;-95
2021/06/17 06:27:28;;;;;;;2.93;2.73;;;25.70;75.30;;;;;;4997214;28;20452;-95
2021/06/17 06:29:56;;;;;;;2.53;2.43;;;25.70;76.20;;;;;;4996877;28;20443;-95
2021/06/17 06:32:23;;;;;;;2.47;2.37;;;25.70;75.30;;;;;;4995593;28;20436;-93
2021/06/17 06:34:49;;;;;;;2.47;2.37;;;25.70;75.30;;;;;;4996586;28;20461;-93
2021/06/17 06:37:16;;;;;;;2.33;2.23;;;25.70;75.30;;;;;;4996966;28;20439;-93
2021/06/17 06:39:43;;;;;;;2.80;2.60;;;25.70;75.30;;;;;;4995569;28;20509;-92
2021/06/17 06:42:10;;;;;;;2.97;2.77;;;25.80;75.40;;;;;;4996272;28;20434;-95
2021/06/17 06:44:38;;;;;;;2.60;2.47;;;25.70;75.40;;;;;;4995978;28;20448;-92
2021/06/17 06:47:05;;;;;;;2.77;2.60;;;25.80;75.50;;;;;;4997473;28;20542;-92
2021/06/17 06:49:32;;;;;;;2.67;2.47;;;25.80;75.50;;;;;;4996655;28;20452;-95
2021/06/17 06:52:13;;;;;;;2.97;2.77;;;25.70;75.40;;;;;;4998649;28;20456;-93
2021/06/17 06:54:40;;;;;;;2.57;2.47;;;25.70;75.40;;;;;;4996440;28;20447;-95
2021/06/17 06:57:07;;;;;;;2.43;2.33;;;25.80;75.50;;;;;;4996415;28;20467;-93
2021/06/17 06:59:34;;;;;;;2.80;2.60;;;25.70;75.40;;;;;;4996663;28;20497;-93
2021/06/17 07:02:03;;;;;;;3.17;2.97;;;25.70;75.40;;;;;;4995934;28;20444;-96
2021/06/17 07:04:30;;;;;;;2.47;2.37;;;25.70;75.40;;;;;;4996509;28;20867;-94
2021/06/17 07:06:57;;;;;;;2.60;2.50;;;25.70;75.40;;;;;;4996331;28;21010;-96
2021/06/17 07:09:24;;;;;;;2.40;2.30;;;25.80;75.60;;;;;;4996357;28;20446;-93
2021/06/17 07:11:50;;;;;;;2.60;2.40;;;25.70;75.50;;;;;;4996557;28;20530;-92
2021/06/17 07:14:17;;;;;;;2.53;2.43;;;25.70;75.60;;;;;;4996667;28;20458;-94
2021/06/17 07:16:44;;;;;;;3.30;3.10;;;25.70;75.50;;;;;;4996405;28;20435;-93
2021/06/17 07:19:12;;;;;;;2.40;2.30;;;25.70;75.60;;;;;;4995951;28;20467;-92
2021/06/17 07:21:39;;;;;;;2.50;2.40;;;25.70;75.60;;;;;;4995897;28;20489;-96
2021/06/17 07:24:07;;;;;;;3.30;3.10;;;25.70;75.50;;;;;;4996091;28;20531;-96
2021/06/17 07:26:34;;;;;;;2.63;2.53;;;25.70;76.50;;;;;;4996088;28;20459;-95
2021/06/17 07:29:01;;;;;;;2.60;2.50;;;25.70;75.60;;;;;;4995588;28;20913;-94
2021/06/17 07:31:28;;;;;;;2.90;2.80;;;25.70;75.70;;;;;;4996308;28;20936;-96
2021/06/17 07:33:55;;;;;;;2.60;2.50;;;25.70;75.70;;;;;;4996282;28;20455;-93
2021/06/17 07:36:23;;;;;;;2.70;2.50;;;25.70;75.70;;;;;;4995730;28;21002;-94
2021/06/17 07:38:50;;;;;;;2.67;2.47;;;25.80;75.70;;;;;;4995030;28;20475;-95
2021/06/17 07:41:17;;;;;;;2.50;2.40;;;25.70;75.70;;;;;;4995064;28;20448;-93
2021/06/17 07:43:44;;;;;;;2.90;2.70;;;25.80;75.70;;;;;;4996535;28;20451;-95
2021/06/17 07:46:11;;;;;;;2.93;2.73;;;25.80;75.70;;;;;;4997432;28;20439;-93
2021/06/17 07:48:39;;;;;;;3.00;2.80;;;25.70;75.70;;;;;;4999148;28;20485;-95
2021/06/17 07:51:07;;;;;;;2.40;2.30;;;25.80;75.80;;;;;;5004254;28;20436;-90
2021/06/17 07:53:37;;;;;;;2.77;2.60;;;25.70;75.70;;;;;;5007455;28;20447;-94
2021/06/17 07:56:05;;;;;;;2.50;2.40;;;25.70;75.70;;;;;;5007349;28;21009;-93
2021/06/17 07:58:32;;;;;;;2.53;2.43;;;25.70;75.70;;;;;;5003581;28;20430;-96
2021/06/17 08:00:59;;;;;;;2.70;2.60;;;25.70;75.80;;;;;;4999379;28;20500;-92
2021/06/17 08:03:27;;;;;;;2.70;2.50;;;25.80;75.90;;;;;;4999703;28;20446;-93
2021/06/17 08:05:54;;;;;;;2.80;2.60;;;25.70;75.80;;;;;;4999144;28;20520;-95
2021/06/17 08:08:21;;;;;;;2.67;2.47;;;25.70;75.80;;;;;;4998812;28;20446;-92
2021/06/17 08:10:49;;;;;;;2.20;2.10;;;25.70;75.80;;;;;;4998499;28;20538;-93
2021/06/17 08:13:16;;;;;;;2.33;2.23;;;25.70;75.80;;;;;;4998566;28;20453;-95
2021/06/17 08:15:43;;;;;;;2.20;2.10;;;25.70;75.90;;;;;;4998854;28;20800;-96
2021/06/17 08:18:10;;;;;;;2.67;2.47;;;25.70;75.90;;;;;;4998911;28;20454;-95
2021/06/17 08:20:37;;;;;;;2.50;2.40;;;25.70;75.90;;;;;;4999097;28;20826;-94
2021/06/17 08:23:05;;;;;;;3.00;2.80;;;25.80;76.00;;;;;;4999288;28;20458;-93
2021/06/17 08:25:33;;;;;;;2.50;2.30;;;25.70;75.90;;;;;;4998751;28;20454;-93
2021/06/17 08:28:04;;;;;;;2.77;2.67;;;25.80;76.00;;;;;;4998593;28;20459;-93
2021/06/17 08:30:32;;;;;;;2.27;2.17;;;25.80;76.00;;;;;;4999488;28;20919;-93
2021/06/17 08:33:00;;;;;;;2.53;2.40;;;25.80;76.00;;;;;;4998407;28;20447;-96
2021/06/17 08:35:27;;;;;;;2.13;2.03;;;25.80;76.00;;;;;;4997742;28;20464;-96
2021/06/17 08:37:54;;;;;;;2.50;2.40;;;25.80;76.10;;;;;;4998611;28;20445;-93
2021/06/17 08:40:25;;;;;;;2.50;2.40;;;25.80;76.00;;;;;;4998025;28;20483;-93
2021/06/17 08:42:52;;;;;;;2.70;2.50;;;25.80;76.90;;;;;;4998658;28;20470;-95
2021/06/17 08:45:20;;;;;;;2.30;2.20;;;25.80;76.10;;;;;;4998224;28;20533;-93
2021/06/17 08:47:47;;;;;;;2.30;2.20;;;25.80;76.10;;;;;;4998569;28;20465;-94
2021/06/17 08:50:15;;;;;;;2.30;2.20;;;25.80;76.10;;;;;;4997940;28;20463;-93
2021/06/17 08:52:43;;;;;;;2.37;2.27;;;25.80;76.10;;;;;;4998746;28;20929;-96
2021/06/17 08:55:16;;;;;;;3.20;2.90;;;25.80;76.10;;;;;;4998128;28;20447;-92
2021/06/17 08:57:44;;;;;;;2.37;2.27;;;25.80;76.10;;;;;;4998309;28;20964;-95
2021/06/17 09:00:48;;;;;;;2.60;2.40;;;25.80;76.10;;;;;;4998208;28;20485;-92
2021/06/17 09:03:17;;;;;;;2.37;2.27;;;25.80;76.00;;;;;;4993638;28;20451;-96
2021/06/17 09:05:46;;;;;;;2.33;2.23;;;25.80;76.20;;;;;;4998091;28;20959;-92
2021/06/17 09:08:15;;;;;;;2.87;2.70;;;25.80;76.20;;;;;;4997672;28;20444;-92
2021/06/17 09:10:43;;;;;;;2.50;2.40;;;25.80;76.20;;;;;;4997557;28;20454;-93
2021/06/17 09:13:11;;;;;;;2.30;2.20;;;25.80;76.20;;;;;;4998076;28;20881;-95
2021/06/17 09:15:42;;;;;;;2.67;2.50;;;25.80;76.20;;;;;;4997582;28;20450;-93
2021/06/17 09:18:21;;;;;;;2.47;2.37;;;25.80;76.20;;;;;;4998448;28;20448;-93
2021/06/17 09:20:54;;;;;;;2.23;2.13;;;25.80;76.20;;;;;;4998211;28;20834;-96
2021/06/17 09:23:36;;;;;;;2.40;2.30;;;25.80;76.30;;;;;;4997677;28;20444;-93
2021/06/17 09:26:07;;;;;;;2.30;2.20;;;25.80;76.20;;;;;;4997831;28;20455;-94
2021/06/17 09:28:54;;;;;;;2.80;2.60;;;25.80;76.20;;;;;;4997561;28;20450;-93
2021/06/17 09:31:24;;;;;;;2.13;2.03;;;25.90;76.30;;;;;;4998004;28;21022;-93
2021/06/17 09:33:54;;;;;;;2.37;2.27;;;25.80;76.30;;;;;;4997516;28;20876;-94
2021/06/17 09:36:22;;;;;;;2.43;2.33;;;25.80;76.30;;;;;;4998008;28;20558;-93
2021/06/17 09:38:51;;;;;;;2.33;2.23;;;25.90;76.50;;;;;;4998199;28;20473;-96
2021/06/17 09:41:36;;;;;;;2.40;2.30;;;25.80;76.30;;;;;;4996880;28;20482;-96
2021/06/17 09:44:06;;;;;;;2.00;1.90;;;25.90;76.30;;;;;;4997049;28;20439;-94
2021/06/17 09:46:33;;;;;;;2.63;2.43;;;25.80;76.40;;;;;;4997097;28;20448;-94
2021/06/17 09:49:07;;;;;;;2.20;2.10;;;25.80;76.40;;;;;;4997196;28;20534;-93
2021/06/17 09:51:38;;;;;;;2.30;2.20;;;25.80;76.40;;;;;;4997047;28;20479;-93
2021/06/17 09:54:11;;;;;;;2.77;2.57;;;25.80;76.40;;;;;;4998001;28;20861;-95
2021/06/17 09:56:40;;;;;;;2.40;2.30;;;25.80;76.40;;;;;;4997028;28;20446;-96
2021/06/17 09:59:09;;;;;;;2.40;2.30;;;25.90;76.60;;;;;;4997064;28;20546;-93
2021/06/17 10:01:42;;;;;;;2.60;2.50;;;25.80;76.40;;;;;;4997929;28;21001;-91
2021/06/17 10:04:12;;;;;;;2.43;2.33;;;25.80;76.40;;;;;;5008581;28;20454;-92
2021/06/17 10:06:40;;;;;;;2.43;2.33;;;25.80;76.50;;;;;;5007277;28;20539;-96
2021/06/17 10:09:09;;;;;;;2.70;2.60;;;25.80;76.40;;;;;;5003520;28;20465;-93
2021/06/17 10:11:37;;;;;;;2.83;2.67;;;25.80;76.40;;;;;;4997346;28;20448;-95
2021/06/17 10:14:05;;;;;;;2.23;2.13;;;25.90;76.60;;;;;;4996872;28;20449;-93
2021/06/17 10:16:33;;;;;;;2.10;2.00;;;25.90;76.60;;;;;;4996632;28;20477;-93
2021/06/17 10:19:01;;;;;;;2.60;2.40;;;25.90;76.60;;;;;;4996218;28;20452;-93
2021/06/17 10:21:31;;;;;;;2.57;2.47;;;25.90;76.60;;;;;;4995335;28;20547;-93
2021/06/17 10:24:00;;;;;;;2.30;2.20;;;25.90;76.60;;;;;;4997437;28;20458;-96
2021/06/17 10:26:30;;;;;;;2.10;2.00;;;25.90;76.60;;;;;;4996921;28;20465;-93
2021/06/17 10:28:58;;;;;;;2.50;2.40;;;25.90;76.60;;;;;;5009824;28;20427;-94
2021/06/17 10:31:45;;;;;;;2.53;2.40;;;25.90;76.60;;;;;;5020075;28;20503;-92
2021/06/17 10:34:34;;;;;;;2.33;2.23;;;25.90;76.60;;;;;;5020229;28;20471;-94
2021/06/17 10:37:17;;;;;;;2.10;2.00;;;25.90;76.60;;;;;;5005938;28;20467;-96
2021/06/17 10:39:47;;;;;;;2.90;2.70;;;25.90;76.70;;;;;;4996690;28;20442;-95
2021/06/17 10:42:19;;;;;;;2.50;2.40;;;25.90;76.70;;;;;;4996901;28;20481;-96
2021/06/17 10:44:52;;;;;;;2.60;2.50;;;25.90;76.70;;;;;;4995361;28;20457;-93
2021/06/17 10:48:11;;;;;;;2.43;2.33;;;26.00;76.80;;;;;;4997484;28;20931;-93
2021/06/17 10:50:53;;;;;;;2.43;2.33;;;25.90;76.70;;;;;;4996120;28;20482;-92
2021/06/17 10:53:44;;;;;;;2.70;2.60;;;25.90;76.80;;;;;;4995977;28;20447;-96
2021/06/17 10:56:16;;;;;;;2.47;2.37;;;25.90;76.80;;;;;;4996896;28;20540;-95
2021/06/17 10:59:05;;;;;;;2.53;2.43;;;25.90;76.80;;;;;;4997044;28;20457;-95
2021/06/17 11:01:37;;;;;;;2.50;2.40;;;25.90;76.70;;;;;;4996276;28;20506;-96
2021/06/17 11:04:16;;;;;;;2.80;2.67;;;25.90;76.80;;;;;;4996914;28;20459;-93
2021/06/17 11:07:20;;;;;;;2.43;2.33;;;26.00;76.90;;;;;;4996669;28;20455;-96
2021/06/17 11:10:00;;;;;;;2.50;2.40;;;25.90;76.80;;;;;;4996430;28;20460;-94
2021/06/17 11:12:58;;;;;;;2.70;2.50;;;25.90;76.90;;;;;;4996601;28;20511;-92
2021/06/17 11:15:43;;;;;;;2.20;2.10;;;26.00;76.90;;;;;;4980709;28;20454;-93
2021/06/17 11:18:11;;;;;;;2.53;2.33;;;25.90;76.90;;;;;;4995903;28;20912;-93
2021/06/17 11:20:40;;;;;;;2.50;2.40;;;26.00;77.10;;;;;;4995620;28;20526;-95
2021/06/17 11:23:08;;;;;;;2.60;2.50;;;25.90;76.90;;;;;;4995918;28;20514;-95
2021/06/17 11:25:40;;;;;;;2.70;2.50;;;25.90;76.90;;;;;;4995906;28;20548;-93
2021/06/17 11:28:09;;;;;;;2.40;2.30;;;26.00;77.00;;;;;;4996505;28;20447;-95
2021/06/17 11:31:01;;;;;;;2.50;2.40;;;26.00;77.00;;;;;;4995499;28;20438;-93
2021/06/17 11:33:44;;;;;;;2.30;2.20;;;26.00;76.90;;;;;;4991571;28;20926;-95
2021/06/17 11:36:14;;;;;;;2.30;2.20;;;26.10;77.10;;;;;;4995735;28;20475;-96
2021/06/17 11:38:41;;;;;;;2.70;2.50;;;26.10;77.10;;;;;;4995609;28;20455;-96
2021/06/17 11:41:24;;;;;;;2.20;2.10;;;26.00;77.00;;;;;;4995186;28;20487;-94
2021/06/17 11:43:57;;;;;;;2.50;2.40;;;26.00;76.90;;;;;;4995287;28;20454;-96
2021/06/17 11:46:32;;;;;;;2.40;2.30;;;26.00;77.00;;;;;;4995795;28;20793;-93
2021/06/17 11:49:03;;;;;;;2.10;2.00;;;26.00;76.90;;;;;;4995907;28;20476;-95
2021/06/17 11:51:53;;;;;;;2.40;2.30;;;26.00;77.00;;;;;;4996057;28;20531;-96
2021/06/17 11:54:23;;;;;;;2.70;2.60;;;26.00;76.90;;;;;;4990195;28;20509;-96
2021/06/17 11:56:52;;;;;;;2.60;2.40;;;26.10;77.10;;;;;;4995432;28;20447;-95
2021/06/17 11:59:25;;;;;;;2.40;2.30;;;26.00;77.00;;;;;;4995977;28;20456;-93
2021/06/17 12:02:14;;;;;;;1.90;1.80;;;26.10;78.00;;;;;;4994974;28;20479;-96
2021/06/17 12:04:43;;;;;;;2.60;2.50;;;26.10;77.10;;;;;;4995536;28;20448;-95
2021/06/17 12:07:11;;;;;;;2.30;2.20;;;26.00;77.00;;;;;;4995379;28;20953;-93
2021/06/17 12:09:39;;;;;;;1.97;1.87;;;26.00;77.00;;;;;;4995085;28;20454;-93
2021/06/17 12:12:19;;;;;;;2.30;2.20;;;26.10;77.00;;;;;;4994884;28;20443;-93
2021/06/17 12:14:47;;;;;;;2.40;2.30;;;26.00;76.90;;;;;;4995113;28;20461;-93
2021/06/17 12:17:27;;;;;;;2.27;2.17;;;26.10;77.10;;;;;;4994665;28;20444;-92
2021/06/17 12:19:56;;;;;;;2.37;2.27;;;26.10;77.00;;;;;;5004146;28;20451;-93
2021/06/17 12:22:23;;;;;;;2.30;2.10;;;26.00;77.00;;;;;;5002275;28;20849;-93
2021/06/17 12:24:50;;;;;;;2.10;2.00;;;26.00;77.00;;;;;;5000028;28;20462;-93
2021/06/17 12:27:19;;;;;;;2.13;1.93;;;26.00;77.00;;;;;;4994914;28;20512;-96
2021/06/17 12:29:47;;;;;;;2.33;2.23;;;26.00;76.90;;;;;;4995005;28;20448;-93
2021/06/17 12:32:14;;;;;;;2.23;2.13;;;26.00;76.90;;;;;;4994698;28;20506;-92
2021/06/17 12:34:42;;;;;;;2.17;2.03;;;26.00;76.90;;;;;;4994908;28;20457;-95
2021/06/17 12:37:11;;;;;;;2.10;1.90;;;26.00;76.90;;;;;;4995224;28;20955;-94
2021/06/17 12:39:39;;;;;;;2.70;2.50;;;26.00;76.90;;;;;;4994803;28;20511;-93
2021/06/17 12:42:11;;;;;;;2.37;2.27;;;26.10;77.00;;;;;;4995010;28;20487;-92
2021/06/17 12:44:41;;;;;;;2.50;2.40;;;26.10;77.00;;;;;;4997810;28;20448;-94
2021/06/17 12:47:14;;;;;;;2.60;2.40;;;26.10;77.00;;;;;;4998553;28;20794;-95
2021/06/17 12:52:27;;;;;;;2.33;2.23;;;26.10;77.00;;;;;;4998161;28;20517;-95
2021/06/17 12:54:54;;;;;;;2.30;2.20;;;26.10;77.00;;;;;;4998250;28;20447;-93
2021/06/17 12:57:22;;;;;;;1.90;1.80;;;26.10;77.00;;;;;;4998349;28;20456;-94
2021/06/17 12:59:55;;;;;;;2.23;2.13;;;26.20;77.10;;;;;;4998207;28;20451;-94
2021/06/17 13:02:44;;;;;;;2.20;2.10;;;26.10;77.00;;;;;;4998546;28;20472;-94
2021/06/17 13:05:14;;;;;;;1.70;1.60;;;26.10;76.90;;;;;;4998393;28;20503;-92
2021/06/17 13:07:57;;;;;;;2.33;2.20;;;26.10;77.10;;;;;;4997844;28;20807;-94
2021/06/17 13:10:25;;;;;;;2.07;1.97;;;26.20;77.10;;;;;;4998200;28;20965;-94